Bloomer, Wisconsin
Current Conditions -  °F | °C
As of 11:35 PM on Wednesday 17 Dec 2014 (Local Time) from KY23 Reporting Station
Overcast Overcast  
Wind Chill: 19°   Ceiling: 1600
Heat Index: 19°   Visibility: 10mi
Dew Point: 15°   Wind: 0mph
Humidity: 82%   Direction: NA
Pressure: 30.31"   Gusts: NA
Location:  45.1°N, 91.49°W
Report Text: KY23 180535Z AUTO 00000KT 10SM OVC016 M07/M10 A3031 RMK AO2 T10711097
Loading
Personal Weather Stations






























Interactive Weather Map New forecast layout! Learn more

10-Day Weather Forecast

Advertisements
Track Severe Weather on mobile